Aérodrome :
LOGIN :

S'inscrire | Disclaimer

   EN    FR    IT 

 










Légende :    VFR   VFR Marginal   IFR   IFR Intensif   IFR Très Intensif
Visi : 
Plafond : 
>= 8 km
>= 3000ft
5 à 8 km
1000 à 3000 ft
1500m à 5 km
500 à 1000 ft
800 à 1500m
200 à 500 ft
< 800m
< 200 ft
Symboles :   Orages  Brouillard  Fortes neiges  Fortes précipitations  Vent > 20 kt
SIGMETs :   Divers  Orages  Givrage  Turbulence  Onde Orograph.  Cendres Volcan.






- Altitude de l'aérodrome : 659 ft
- Code IATA : LGG


EBLG - Liège

DERNIER METAR :
  • 090750Z 12004G18KT 050V150 CAVOK 28/15 Q1018 NOSIG

METARs EXPIRÉS :
  • 090720Z VRB02KT CAVOK 28/14 Q1018 NOSIG
  • 090650Z VRB02KT CAVOK 26/15 Q1018 NOSIG
  • 090620Z 14008KT CAVOK 24/14 Q1018 NOSIG
  • 090550Z VRB03KT CAVOK 23/14 Q1018 NOSIG

TAF TAF EBLG
Valide du 09 à 06h jusqu'au 10 à 12h UTC


090510Z 0906/1012 08005KT CAVOK
PROB30
TEMPO 0912/1002 VRB15G25KT -TSRA



MET'MAP, la Météo Aéronautique d'un coup d'oeil ! - Copyright ORBIFLY Décembre 2007 - Disclaimer

ORBIFLY MET'MAP TEAM :

Programmation & Développement : Alexandra Zaïnal
Sur une idée originale de : Baudouin d'Aumeries
Assistance à la programmation : Marc-Olivier Méhu
Soutien technique & logistique : Manuel Goepfert

Contact : metmap@orbifly.com




SOURCES & CREDITS :

   NOAA